VTPH

Hua Hin Airport

Hua Hin, Thailand
TAF VTPH 182300Z 1900/1924 32005KT 5000 BR FEW030 BECMG 1902/1904 03008KT 7000 NSW BECMG 1916/1918 32005KT 5000 BR
Issued Valid From Valid To
Jan-18 @ 23:00 UTC
(3 hours ago)
Jan-19 @ 00:00 UTC
(2 hours ago)
Jan-20 @ 00:00 UTC
(in 22 hours)
Expired Click to View Jan-19 @ 00:00 to Jan-19 @ 02:00
TAF VTPH 182300Z 1900/1924 32005KT 5000 BR FEW030
Wind Visibility Clouds Conditions
320° at 5 knots 5,005 meters
  • Few at 3,000' AGL
  • Mist
Becoming Jan-19 @ 02:00 to Jan-19 @ 16:00
BECMG 1902/1904 03008KT 7000 NSW
Wind Visibility Clouds Conditions
30° at 8 knots 7,001 meters
  • Few at 3,000' AGL
Becoming Jan-19 @ 16:00 to Jan-20 @ 00:00
BECMG 1916/1918 32005KT 5000 BR
Wind Visibility Clouds Conditions
320° at 5 knots 5,005 meters
  • Few at 3,000' AGL
  • Mist
TAF VTPH 182300Z 1900/1924 32005KT 5000 BR FEW030 BECMG 1902/1904 03008KT 7000 NSW BECMG 1916/1918 32005KT 5000 BR
Issued Jan-18 @ 23:00 UTC
(3 hours ago)
Valid From Jan-19 @ 00:00 UTC
(2 hours ago)
Valid To Jan-20 @ 00:00 UTC
(in 22 hours)
Jan-19 @ 00:00 - Jan-19 @ 02:00
Wind Visibility
320° at 5 knots 5,005 meters
Clouds
  • Few at 3,000' AGL
Conditions
  • Mist
Becoming Jan-19 @ 02:00 - Jan-19 @ 16:00
Wind Visibility
30° at 8 knots 7,001 meters
Clouds
  • Few at 3,000' AGL
Conditions
Becoming Jan-19 @ 16:00 - Jan-20 @ 00:00
Wind Visibility
320° at 5 knots 5,005 meters
Clouds
  • Few at 3,000' AGL
Conditions
  • Mist